sensor_id;sensor_type;location;lat;lon;timestamp;pressure;altitude;pressure_sealevel;temperature;humidity
34921;BME280;21128;50.016;20.002;2023-05-23T00:00:57;98658.85;;;12.51;75.72
34921;BME280;21128;50.016;20.002;2023-05-23T00:03:27;98651.94;;;12.50;75.41
34921;BME280;21128;50.016;20.002;2023-05-23T00:05:56;98654.73;;;12.48;75.52
34921;BME280;21128;50.016;20.002;2023-05-23T00:08:24;98654.73;;;12.48;76.38
34921;BME280;21128;50.016;20.002;2023-05-23T00:10:51;98647.98;;;12.46;75.90
34921;BME280;21128;50.016;20.002;2023-05-23T00:13:18;98648.28;;;12.43;76.14
34921;BME280;21128;50.016;20.002;2023-05-23T00:15:45;98652.06;;;12.40;76.13
34921;BME280;21128;50.016;20.002;2023-05-23T00:18:14;98652.23;;;12.38;76.75
34921;BME280;21128;50.016;20.002;2023-05-23T00:20:42;98648.93;;;12.36;76.79
34921;BME280;21128;50.016;20.002;2023-05-23T00:23:10;98650.22;;;12.32;76.13
34921;BME280;21128;50.016;20.002;2023-05-23T00:25:44;98646.09;;;12.30;77.07
34921;BME280;21128;50.016;20.002;2023-05-23T00:28:18;98652.48;;;12.27;76.54
34921;BME280;21128;50.016;20.002;2023-05-23T00:30:47;98648.36;;;12.25;76.67
34921;BME280;21128;50.016;20.002;2023-05-23T00:33:17;98647.54;;;12.24;76.83
34921;BME280;21128;50.016;20.002;2023-05-23T00:35:47;98647.05;;;12.21;76.96
34921;BME280;21128;50.016;20.002;2023-05-23T00:38:15;98645.39;;;12.20;77.27
34921;BME280;21128;50.016;20.002;2023-05-23T00:40:42;98647.33;;;12.18;77.62
34921;BME280;21128;50.016;20.002;2023-05-23T00:43:09;98645.69;;;12.17;77.72
34921;BME280;21128;50.016;20.002;2023-05-23T00:45:36;98637.13;;;12.15;77.77
34921;BME280;21128;50.016;20.002;2023-05-23T00:48:05;98634.81;;;12.11;77.54
34921;BME280;21128;50.016;20.002;2023-05-23T00:50:34;98636.91;;;12.08;78.10
34921;BME280;21128;50.016;20.002;2023-05-23T00:53:02;98635.44;;;12.05;77.95
34921;BME280;21128;50.016;20.002;2023-05-23T00:55:30;98627.86;;;12.02;78.35
34921;BME280;21128;50.016;20.002;2023-05-23T00:57:57;98634.40;;;11.98;78.80
34921;BME280;21128;50.016;20.002;2023-05-23T01:00:25;98631.27;;;11.95;78.94
34921;BME280;21128;50.016;20.002;2023-05-23T01:02:52;98630.73;;;11.91;78.45
34921;BME280;21128;50.016;20.002;2023-05-23T01:05:20;98633.98;;;11.85;78.72
34921;BME280;21128;50.016;20.002;2023-05-23T01:07:51;98628.20;;;11.81;79.21
34921;BME280;21128;50.016;20.002;2023-05-23T01:10:21;98627.52;;;11.79;79.17
34921;BME280;21128;50.016;20.002;2023-05-23T01:13:07;98622.54;;;11.76;79.39
34921;BME280;21128;50.016;20.002;2023-05-23T01:15:41;98628.13;;;11.73;79.64
34921;BME280;21128;50.016;20.002;2023-05-23T01:18:23;98618.73;;;11.71;79.77
34921;BME280;21128;50.016;20.002;2023-05-23T01:20:59;98624.16;;;11.69;79.92
34921;BME280;21128;50.016;20.002;2023-05-23T01:26:31;98622.64;;;11.67;80.21
34921;BME280;21128;50.016;20.002;2023-05-23T01:29:10;98623.78;;;11.64;80.55
34921;BME280;21128;50.016;20.002;2023-05-23T01:31:44;98621.00;;;11.66;80.29
34921;BME280;21128;50.016;20.002;2023-05-23T01:34:12;98616.88;;;11.63;80.97
34921;BME280;21128;50.016;20.002;2023-05-23T01:36:42;98611.61;;;11.63;80.77
34921;BME280;21128;50.016;20.002;2023-05-23T01:39:09;98608.00;;;11.64;80.79
34921;BME280;21128;50.016;20.002;2023-05-23T01:41:37;98611.61;;;11.63;81.51
34921;BME280;21128;50.016;20.002;2023-05-23T01:44:04;98614.41;;;11.62;81.58
34921;BME280;21128;50.016;20.002;2023-05-23T01:46:33;98617.16;;;11.60;81.39
34921;BME280;21128;50.016;20.002;2023-05-23T01:49:02;98607.78;;;11.58;81.75
34921;BME280;21128;50.016;20.002;2023-05-23T01:51:30;98608.92;;;11.55;82.18
34921;BME280;21128;50.016;20.002;2023-05-23T01:53:57;98612.98;;;11.49;81.87
34921;BME280;21128;50.016;20.002;2023-05-23T01:56:28;98617.89;;;11.44;82.05
34921;BME280;21128;50.016;20.002;2023-05-23T01:58:56;98603.22;;;11.42;82.94
34921;BME280;21128;50.016;20.002;2023-05-23T02:01:23;98607.81;;;11.40;82.75
34921;BME280;21128;50.016;20.002;2023-05-23T02:03:50;98606.33;;;11.37;83.14
34921;BME280;21128;50.016;20.002;2023-05-23T02:06:17;98598.59;;;11.36;83.14
34921;BME280;21128;50.016;20.002;2023-05-23T02:08:44;98601.34;;;11.34;83.05
34921;BME280;21128;50.016;20.002;2023-05-23T02:11:11;98592.63;;;11.34;83.50
34921;BME280;21128;50.016;20.002;2023-05-23T02:13:38;98590.98;;;11.33;83.47
34921;BME280;21128;50.016;20.002;2023-05-23T02:16:05;98587.69;;;11.31;83.66
34921;BME280;21128;50.016;20.002;2023-05-23T02:18:32;98588.83;;;11.28;84.02
34921;BME280;21128;50.016;20.002;2023-05-23T02:20:59;98589.94;;;11.25;84.13
34921;BME280;21128;50.016;20.002;2023-05-23T02:23:26;98592.22;;;11.20;84.36
34921;BME280;21128;50.016;20.002;2023-05-23T02:25:53;98590.03;;;11.16;84.35
34921;BME280;21128;50.016;20.002;2023-05-23T02:28:19;98586.89;;;11.12;84.83
34921;BME280;21128;50.016;20.002;2023-05-23T02:30:46;98582.07;;;11.08;85.14
34921;BME280;21128;50.016;20.002;2023-05-23T02:33:13;98578.11;;;11.04;85.32
34921;BME280;21128;50.016;20.002;2023-05-23T02:35:42;98584.34;;;11.03;85.29
34921;BME280;21128;50.016;20.002;2023-05-23T02:38:09;98588.91;;;11.00;85.90
34921;BME280;21128;50.016;20.002;2023-05-23T02:40:36;98591.02;;;10.97;86.45
34921;BME280;21128;50.016;20.002;2023-05-23T02:43:03;98586.75;;;10.96;86.64
34921;BME280;21128;50.016;20.002;2023-05-23T02:45:30;98589.66;;;10.93;86.95
34921;BME280;21128;50.016;20.002;2023-05-23T02:47:57;98585.84;;;10.87;87.26
34921;BME280;21128;50.016;20.002;2023-05-23T02:50:23;98587.11;;;10.83;87.37
34921;BME280;21128;50.016;20.002;2023-05-23T02:52:50;98592.36;;;10.83;88.95
34921;BME280;21128;50.016;20.002;2023-05-23T02:55:17;98590.71;;;10.82;88.53
34921;BME280;21128;50.016;20.002;2023-05-23T02:57:44;98592.00;;;10.78;88.54
34921;BME280;21128;50.016;20.002;2023-05-23T03:00:12;98587.84;;;10.76;88.54
34921;BME280;21128;50.016;20.002;2023-05-23T03:02:40;98576.67;;;10.74;89.01
34921;BME280;21128;50.016;20.002;2023-05-23T03:05:08;98583.73;;;10.73;89.18
34921;BME280;21128;50.016;20.002;2023-05-23T03:07:35;98581.41;;;10.70;89.46
34921;BME280;21128;50.016;20.002;2023-05-23T03:10:03;98583.87;;;10.71;89.78
34921;BME280;21128;50.016;20.002;2023-05-23T03:12:30;98587.48;;;10.70;90.13
34921;BME280;21128;50.016;20.002;2023-05-23T03:14:56;98582.66;;;10.66;90.12
34921;BME280;21128;50.016;20.002;2023-05-23T03:17:24;98572.62;;;10.61;90.39
34921;BME280;21128;50.016;20.002;2023-05-23T03:19:51;98566.81;;;10.58;90.73
34921;BME280;21128;50.016;20.002;2023-05-23T03:22:19;98574.03;;;10.56;91.27
34921;BME280;21128;50.016;20.002;2023-05-23T03:24:46;98563.52;;;10.56;91.44
34921;BME280;21128;50.016;20.002;2023-05-23T03:27:13;98565.47;;;10.54;91.71
34921;BME280;21128;50.016;20.002;2023-05-23T03:29:40;98576.96;;;10.53;91.47
34921;BME280;21128;50.016;20.002;2023-05-23T03:32:07;98574.33;;;10.53;91.86
34921;BME280;21128;50.016;20.002;2023-05-23T03:34:34;98573.35;;;10.54;92.39
34921;BME280;21128;50.016;20.002;2023-05-23T03:37:02;98583.41;;;10.58;92.38
34921;BME280;21128;50.016;20.002;2023-05-23T03:39:29;98584.77;;;10.62;92.61
34921;BME280;21128;50.016;20.002;2023-05-23T03:41:57;98577.41;;;10.66;92.67
34921;BME280;21128;50.016;20.002;2023-05-23T03:44:24;98584.03;;;10.70;92.89
34921;BME280;21128;50.016;20.002;2023-05-23T03:46:51;98584.70;;;10.72;92.96
34921;BME280;21128;50.016;20.002;2023-05-23T03:49:18;98583.42;;;10.76;92.77
34921;BME280;21128;50.016;20.002;2023-05-23T03:51:45;98584.12;;;10.78;92.63
34921;BME280;21128;50.016;20.002;2023-05-23T03:54:11;98576.75;;;10.82;92.81
34921;BME280;21128;50.016;20.002;2023-05-23T03:56:38;98584.71;;;10.90;93.08
34921;BME280;21128;50.016;20.002;2023-05-23T03:59:06;98582.47;;;10.95;92.63
34921;BME280;21128;50.016;20.002;2023-05-23T04:01:33;98577.72;;;10.98;92.61
34921;BME280;21128;50.016;20.002;2023-05-23T04:04:00;98582.07;;;11.08;92.36
34921;BME280;21128;50.016;20.002;2023-05-23T04:06:27;98579.16;;;11.11;92.05
34921;BME280;21128;50.016;20.002;2023-05-23T04:08:56;98582.97;;;11.16;92.05
34921;BME280;21128;50.016;20.002;2023-05-23T04:11:23;98588.29;;;11.24;91.98
34921;BME280;21128;50.016;20.002;2023-05-23T04:13:50;98584.23;;;11.30;91.46
34921;BME280;21128;50.016;20.002;2023-05-23T04:16:18;98584.30;;;11.38;91.55
34921;BME280;21128;50.016;20.002;2023-05-23T04:18:44;98584.20;;;11.48;90.99
34921;BME280;21128;50.016;20.002;2023-05-23T04:21:13;98583.11;;;11.59;90.68
34921;BME280;21128;50.016;20.002;2023-05-23T04:23:40;98583.48;;;11.64;90.60
34921;BME280;21128;50.016;20.002;2023-05-23T04:26:07;98578.94;;;11.74;90.89
34921;BME280;21128;50.016;20.002;2023-05-23T04:28:35;98584.65;;;11.87;90.30
34921;BME280;21128;50.016;20.002;2023-05-23T04:31:03;98579.59;;;12.02;89.75
34921;BME280;21128;50.016;20.002;2023-05-23T04:33:30;98575.06;;;12.12;89.42
34921;BME280;21128;50.016;20.002;2023-05-23T04:35:57;98574.93;;;12.22;88.76
34921;BME280;21128;50.016;20.002;2023-05-23T04:38:24;98581.22;;;12.29;88.36
34921;BME280;21128;50.016;20.002;2023-05-23T04:40:51;98568.21;;;12.35;87.37
34921;BME280;21128;50.016;20.002;2023-05-23T04:43:18;98578.94;;;12.42;86.92
34921;BME280;21128;50.016;20.002;2023-05-23T04:45:46;98573.38;;;12.45;86.08
34921;BME280;21128;50.016;20.002;2023-05-23T04:48:15;98569.08;;;12.52;85.68
34921;BME280;21128;50.016;20.002;2023-05-23T04:50:42;98560.70;;;12.57;85.63
34921;BME280;21128;50.016;20.002;2023-05-23T04:53:13;98565.53;;;12.70;85.97
34921;BME280;21128;50.016;20.002;2023-05-23T04:55:40;98557.61;;;12.86;85.58
34921;BME280;21128;50.016;20.002;2023-05-23T04:58:07;98563.07;;;13.01;84.79
34921;BME280;21128;50.016;20.002;2023-05-23T05:00:35;98557.80;;;13.17;84.54
34921;BME280;21128;50.016;20.002;2023-05-23T05:03:02;98553.20;;;13.35;84.32
34921;BME280;21128;50.016;20.002;2023-05-23T05:05:29;98558.45;;;13.51;84.17
34921;BME280;21128;50.016;20.002;2023-05-23T05:07:56;98561.24;;;13.66;83.39
34921;BME280;21128;50.016;20.002;2023-05-23T05:10:23;98563.67;;;13.84;83.44
34921;BME280;21128;50.016;20.002;2023-05-23T05:12:50;98553.59;;;13.96;81.74
34921;BME280;21128;50.016;20.002;2023-05-23T05:15:17;98558.34;;;14.00;80.83
34921;BME280;21128;50.016;20.002;2023-05-23T05:17:45;98565.09;;;14.03;80.39
34921;BME280;21128;50.016;20.002;2023-05-23T05:20:11;98566.41;;;14.07;79.63
34921;BME280;21128;50.016;20.002;2023-05-23T05:22:39;98557.13;;;14.11;79.62
34921;BME280;21128;50.016;20.002;2023-05-23T05:25:07;98553.14;;;14.23;78.90
34921;BME280;21128;50.016;20.002;2023-05-23T05:27:34;98552.23;;;14.39;79.30
34921;BME280;21128;50.016;20.002;2023-05-23T05:30:07;98552.33;;;14.54;78.55
34921;BME280;21128;50.016;20.002;2023-05-23T05:32:34;98553.59;;;14.66;78.15
34921;BME280;21128;50.016;20.002;2023-05-23T05:35:02;98552.59;;;14.67;77.59
34921;BME280;21128;50.016;20.002;2023-05-23T05:37:29;98552.55;;;14.75;77.48
34921;BME280;21128;50.016;20.002;2023-05-23T05:39:56;98550.48;;;14.85;76.86
34921;BME280;21128;50.016;20.002;2023-05-23T05:42:24;98552.89;;;14.95;77.03
34921;BME280;21128;50.016;20.002;2023-05-23T05:44:51;98548.66;;;15.09;76.77
34921;BME280;21128;50.016;20.002;2023-05-23T05:47:18;98555.16;;;15.21;76.21
34921;BME280;21128;50.016;20.002;2023-05-23T05:49:45;98547.52;;;15.26;75.90
34921;BME280;21128;50.016;20.002;2023-05-23T05:52:12;98546.55;;;15.42;75.67
34921;BME280;21128;50.016;20.002;2023-05-23T05:54:39;98542.30;;;15.56;74.91
34921;BME280;21128;50.016;20.002;2023-05-23T05:57:06;98544.89;;;15.64;74.90
34921;BME280;21128;50.016;20.002;2023-05-23T05:59:33;98538.66;;;15.71;74.28
34921;BME280;21128;50.016;20.002;2023-05-23T06:02:00;98544.25;;;15.76;73.44
34921;BME280;21128;50.016;20.002;2023-05-23T06:04:27;98542.86;;;15.81;73.00
34921;BME280;21128;50.016;20.002;2023-05-23T06:06:54;98528.73;;;15.73;72.21
34921;BME280;21128;50.016;20.002;2023-05-23T06:09:21;98525.27;;;15.73;72.61
34921;BME280;21128;50.016;20.002;2023-05-23T06:11:48;98524.88;;;15.76;73.05
34921;BME280;21128;50.016;20.002;2023-05-23T06:14:15;98532.11;;;15.82;72.20
34921;BME280;21128;50.016;20.002;2023-05-23T06:16:42;98529.08;;;15.85;72.10
34921;BME280;21128;50.016;20.002;2023-05-23T06:19:09;98517.38;;;15.94;71.36
34921;BME280;21128;50.016;20.002;2023-05-23T06:21:36;98533.19;;;16.02;71.61
34921;BME280;21128;50.016;20.002;2023-05-23T06:24:03;98531.06;;;16.13;71.70
34921;BME280;21128;50.016;20.002;2023-05-23T06:26:30;98525.47;;;16.22;71.04
34921;BME280;21128;50.016;20.002;2023-05-23T06:28:57;98524.19;;;16.33;70.99
34921;BME280;21128;50.016;20.002;2023-05-23T06:31:24;98527.36;;;16.43;70.44
34921;BME280;21128;50.016;20.002;2023-05-23T06:33:51;98532.98;;;16.55;70.86
34921;BME280;21128;50.016;20.002;2023-05-23T06:36:18;98526.39;;;16.66;69.76
34921;BME280;21128;50.016;20.002;2023-05-23T06:38:46;98523.65;;;16.74;68.86
34921;BME280;21128;50.016;20.002;2023-05-23T06:41:13;98528.30;;;16.72;69.30
34921;BME280;21128;50.016;20.002;2023-05-23T06:43:40;98525.33;;;16.81;68.56
34921;BME280;21128;50.016;20.002;2023-05-23T06:46:07;98522.62;;;16.96;68.63
34921;BME280;21128;50.016;20.002;2023-05-23T06:48:34;98521.05;;;17.02;67.34
34921;BME280;21128;50.016;20.002;2023-05-23T06:51:01;98514.45;;;16.98;67.40
34921;BME280;21128;50.016;20.002;2023-05-23T06:53:28;98512.82;;;16.97;66.98
34921;BME280;21128;50.016;20.002;2023-05-23T06:55:55;98515.05;;;16.93;66.84
34921;BME280;21128;50.016;20.002;2023-05-23T06:58:22;98514.91;;;17.01;66.53
34921;BME280;21128;50.016;20.002;2023-05-23T07:00:51;98513.83;;;17.17;66.81
34921;BME280;21128;50.016;20.002;2023-05-23T07:03:17;98513.09;;;17.30;66.67
34921;BME280;21128;50.016;20.002;2023-05-23T07:05:44;98510.92;;;17.40;67.13
34921;BME280;21128;50.016;20.002;2023-05-23T07:08:11;98509.38;;;17.52;66.36
34921;BME280;21128;50.016;20.002;2023-05-23T07:10:38;98510.47;;;17.64;66.29
34921;BME280;21128;50.016;20.002;2023-05-23T07:13:07;98498.08;;;17.71;65.64
34921;BME280;21128;50.016;20.002;2023-05-23T07:15:34;98492.19;;;17.76;65.03
34921;BME280;21128;50.016;20.002;2023-05-23T07:18:01;98496.90;;;17.81;64.35
34921;BME280;21128;50.016;20.002;2023-05-23T07:20:27;98495.88;;;17.82;64.31
34921;BME280;21128;50.016;20.002;2023-05-23T07:22:54;98491.83;;;17.86;64.23
34921;BME280;21128;50.016;20.002;2023-05-23T07:25:22;98495.95;;;17.95;64.72
34921;BME280;21128;50.016;20.002;2023-05-23T07:27:49;98498.45;;;18.03;64.42
34921;BME280;21128;50.016;20.002;2023-05-23T07:30:18;98497.19;;;17.99;63.43
34921;BME280;21128;50.016;20.002;2023-05-23T07:32:46;98497.19;;;17.99;63.87
34921;BME280;21128;50.016;20.002;2023-05-23T07:35:14;98496.41;;;18.05;64.02
34921;BME280;21128;50.016;20.002;2023-05-23T07:37:41;98497.46;;;18.11;63.84
34921;BME280;21128;50.016;20.002;2023-05-23T07:40:08;98494.84;;;18.17;64.07
34921;BME280;21128;50.016;20.002;2023-05-23T07:42:36;98498.55;;;18.29;62.75
34921;BME280;21128;50.016;20.002;2023-05-23T07:45:03;98497.94;;;18.27;62.32
34921;BME280;21128;50.016;20.002;2023-05-23T07:47:30;98491.18;;;18.25;62.76
34921;BME280;21128;50.016;20.002;2023-05-23T07:49:57;98491.83;;;18.34;62.27
34921;BME280;21128;50.016;20.002;2023-05-23T07:52:24;98500.82;;;18.39;62.67
34921;BME280;21128;50.016;20.002;2023-05-23T07:54:52;98488.78;;;18.43;62.34
34921;BME280;21128;50.016;20.002;2023-05-23T07:57:19;98493.91;;;18.58;62.45
34921;BME280;21128;50.016;20.002;2023-05-23T07:59:46;98484.36;;;18.70;61.20
34921;BME280;21128;50.016;20.002;2023-05-23T08:02:12;98490.52;;;18.77;61.13
34921;BME280;21128;50.016;20.002;2023-05-23T08:04:39;98495.44;;;18.94;60.98
34921;BME280;21128;50.016;20.002;2023-05-23T08:07:06;98486.84;;;19.18;60.88
34921;BME280;21128;50.016;20.002;2023-05-23T08:09:34;98487.03;;;19.30;60.30
34921;BME280;21128;50.016;20.002;2023-05-23T08:12:01;98483.73;;;19.48;60.78
34921;BME280;21128;50.016;20.002;2023-05-23T08:14:28;98486.80;;;19.64;60.26
34921;BME280;21128;50.016;20.002;2023-05-23T08:16:55;98487.16;;;19.81;59.45
34921;BME280;21128;50.016;20.002;2023-05-23T08:19:23;98489.14;;;20.06;59.38
34921;BME280;21128;50.016;20.002;2023-05-23T08:21:50;98492.36;;;20.21;58.97
34921;BME280;21128;50.016;20.002;2023-05-23T08:24:19;98487.81;;;20.28;58.55
34921;BME280;21128;50.016;20.002;2023-05-23T08:26:47;98487.73;;;20.41;58.80
34921;BME280;21128;50.016;20.002;2023-05-23T08:29:15;98489.33;;;20.56;58.33
34921;BME280;21128;50.016;20.002;2023-05-23T08:31:42;98485.16;;;20.66;58.04
34921;BME280;21128;50.016;20.002;2023-05-23T08:34:10;98493.72;;;20.75;56.28
34921;BME280;21128;50.016;20.002;2023-05-23T08:36:37;98487.78;;;20.73;55.65
34921;BME280;21128;50.016;20.002;2023-05-23T08:39:05;98492.01;;;20.87;56.62
34921;BME280;21128;50.016;20.002;2023-05-23T08:41:33;98488.09;;;21.15;56.67
34921;BME280;21128;50.016;20.002;2023-05-23T08:44:01;98488.47;;;21.43;56.83
34921;BME280;21128;50.016;20.002;2023-05-23T08:46:28;98486.73;;;21.74;56.75
34921;BME280;21128;50.016;20.002;2023-05-23T08:48:57;98479.75;;;21.91;56.29
34921;BME280;21128;50.016;20.002;2023-05-23T08:51:27;98476.78;;;22.17;55.93
34921;BME280;21128;50.016;20.002;2023-05-23T08:53:55;98480.69;;;22.33;54.44
34921;BME280;21128;50.016;20.002;2023-05-23T08:56:23;98482.83;;;22.43;55.27
34921;BME280;21128;50.016;20.002;2023-05-23T08:58:53;98476.16;;;22.64;55.15
34921;BME280;21128;50.016;20.002;2023-05-23T09:01:22;98475.13;;;22.76;54.13
34921;BME280;21128;50.016;20.002;2023-05-23T09:03:50;98479.58;;;22.83;53.72
34921;BME280;21128;50.016;20.002;2023-05-23T09:06:19;98471.58;;;22.94;52.82
34921;BME280;21128;50.016;20.002;2023-05-23T09:08:46;98472.77;;;22.98;52.29
34921;BME280;21128;50.016;20.002;2023-05-23T09:11:14;98466.02;;;23.08;51.94
34921;BME280;21128;50.016;20.002;2023-05-23T09:13:41;98473.38;;;23.12;50.04
34921;BME280;21128;50.016;20.002;2023-05-23T09:16:09;98477.55;;;23.08;50.28
34921;BME280;21128;50.016;20.002;2023-05-23T09:18:41;98471.28;;;23.14;50.25
34921;BME280;21128;50.016;20.002;2023-05-23T09:21:10;98467.78;;;23.25;48.80
34921;BME280;21128;50.016;20.002;2023-05-23T09:23:39;98463.95;;;23.21;48.60
34921;BME280;21128;50.016;20.002;2023-05-23T09:26:08;98470.33;;;23.20;48.64
34921;BME280;21128;50.016;20.002;2023-05-23T09:28:38;98464.75;;;23.34;48.89
34921;BME280;21128;50.016;20.002;2023-05-23T09:31:07;98457.75;;;23.56;49.25
34921;BME280;21128;50.016;20.002;2023-05-23T09:33:48;98466.83;;;23.78;48.38
34921;BME280;21128;50.016;20.002;2023-05-23T09:36:16;98460.65;;;23.78;47.82
34921;BME280;21128;50.016;20.002;2023-05-23T09:38:45;98454.55;;;23.94;48.64
34921;BME280;21128;50.016;20.002;2023-05-23T09:41:12;98460.39;;;24.31;48.34
34921;BME280;21128;50.016;20.002;2023-05-23T09:43:48;98459.02;;;24.57;47.83
34921;BME280;21128;50.016;20.002;2023-05-23T09:46:17;98453.01;;;24.67;46.77
34921;BME280;21128;50.016;20.002;2023-05-23T09:48:49;98456.92;;;24.76;47.10
34921;BME280;21128;50.016;20.002;2023-05-23T09:51:19;98462.63;;;24.96;47.24
34921;BME280;21128;50.016;20.002;2023-05-23T09:53:47;98445.09;;;25.06;46.79
34921;BME280;21128;50.016;20.002;2023-05-23T09:56:18;98449.15;;;25.08;45.22
34921;BME280;21128;50.016;20.002;2023-05-23T09:58:47;98441.80;;;25.04;45.07
34921;BME280;21128;50.016;20.002;2023-05-23T10:01:16;98440.52;;;25.06;44.26
34921;BME280;21128;50.016;20.002;2023-05-23T10:03:50;98439.02;;;24.98;43.04
34921;BME280;21128;50.016;20.002;2023-05-23T10:06:30;98437.24;;;25.04;43.98
34921;BME280;21128;50.016;20.002;2023-05-23T10:09:03;98438.61;;;25.40;43.77
34921;BME280;21128;50.016;20.002;2023-05-23T10:14:04;98438.10;;;25.43;42.80
34921;BME280;21128;50.016;20.002;2023-05-23T10:22:05;98429.16;;;25.76;42.55
34921;BME280;21128;50.016;20.002;2023-05-23T10:24:33;98426.69;;;26.19;42.94
34921;BME280;21128;50.016;20.002;2023-05-23T10:27:02;98418.08;;;26.44;41.33
34921;BME280;21128;50.016;20.002;2023-05-23T10:29:30;98417.56;;;26.47;41.61
34921;BME280;21128;50.016;20.002;2023-05-23T10:32:00;98423.99;;;26.73;41.85
34921;BME280;21128;50.016;20.002;2023-05-23T10:34:42;98422.23;;;26.88;41.16
34921;BME280;21128;50.016;20.002;2023-05-23T10:37:23;98412.86;;;26.96;41.00
34921;BME280;21128;50.016;20.002;2023-05-23T10:45:19;98403.63;;;27.24;39.93
34921;BME280;21128;50.016;20.002;2023-05-23T10:47:48;98404.48;;;27.30;39.87
34921;BME280;21128;50.016;20.002;2023-05-23T10:50:29;98406.41;;;27.34;38.81
34921;BME280;21128;50.016;20.002;2023-05-23T10:53:01;98398.49;;;27.17;39.17
34921;BME280;21128;50.016;20.002;2023-05-23T10:55:35;98393.69;;;27.25;38.69
34921;BME280;21128;50.016;20.002;2023-05-23T10:58:18;98396.14;;;26.94;37.19
34921;BME280;21128;50.016;20.002;2023-05-23T11:00:56;98394.45;;;26.83;38.52
34921;BME280;21128;50.016;20.002;2023-05-23T11:09:17;98391.08;;;27.03;37.67
34921;BME280;21128;50.016;20.002;2023-05-23T11:12:04;98380.55;;;27.01;37.38
34921;BME280;21128;50.016;20.002;2023-05-23T11:14:33;98374.80;;;27.25;36.97
34921;BME280;21128;50.016;20.002;2023-05-23T11:17:18;98368.92;;;27.38;37.18
34921;BME280;21128;50.016;20.002;2023-05-23T11:22:26;98372.78;;;27.52;36.81
34921;BME280;21128;50.016;20.002;2023-05-23T11:24:56;98365.73;;;27.46;37.34
34921;BME280;21128;50.016;20.002;2023-05-23T11:27:37;98361.81;;;27.69;36.90
34921;BME280;21128;50.016;20.002;2023-05-23T11:32:35;98358.67;;;28.02;37.18
34921;BME280;21128;50.016;20.002;2023-05-23T11:35:04;98363.33;;;28.32;37.03
34921;BME280;21128;50.016;20.002;2023-05-23T11:37:32;98354.70;;;28.56;36.76
34921;BME280;21128;50.016;20.002;2023-05-23T11:40:32;98345.23;;;28.79;36.73
34921;BME280;21128;50.016;20.002;2023-05-23T11:43:05;98348.45;;;29.11;35.63
34921;BME280;21128;50.016;20.002;2023-05-23T11:45:36;98333.28;;;29.15;34.25
34921;BME280;21128;50.016;20.002;2023-05-23T11:48:05;98338.41;;;29.17;34.09
34921;BME280;21128;50.016;20.002;2023-05-23T11:50:32;98330.89;;;29.04;32.06
34921;BME280;21128;50.016;20.002;2023-05-23T11:53:00;98338.74;;;28.65;33.41
34921;BME280;21128;50.016;20.002;2023-05-23T11:55:27;98339.83;;;28.48;33.00
34921;BME280;21128;50.016;20.002;2023-05-23T11:57:55;98334.17;;;28.35;32.79
34921;BME280;21128;50.016;20.002;2023-05-23T12:00:23;98330.06;;;28.22;33.28
34921;BME280;21128;50.016;20.002;2023-05-23T12:02:50;98329.57;;;28.45;33.20
34921;BME280;21128;50.016;20.002;2023-05-23T12:05:17;98332.80;;;28.73;33.03
34921;BME280;21128;50.016;20.002;2023-05-23T12:07:47;98331.98;;;28.77;32.89
34921;BME280;21128;50.016;20.002;2023-05-23T12:10:15;98331.44;;;28.80;33.14
34921;BME280;21128;50.016;20.002;2023-05-23T12:12:43;98335.23;;;28.90;32.70
34921;BME280;21128;50.016;20.002;2023-05-23T12:15:11;98339.55;;;28.85;32.39
34921;BME280;21128;50.016;20.002;2023-05-23T12:17:43;98335.77;;;28.97;32.49
34921;BME280;21128;50.016;20.002;2023-05-23T12:20:11;98327.62;;;29.12;32.64
34921;BME280;21128;50.016;20.002;2023-05-23T12:22:40;98325.75;;;28.97;32.60
34921;BME280;21128;50.016;20.002;2023-05-23T12:25:08;98324.13;;;28.86;32.18
34921;BME280;21128;50.016;20.002;2023-05-23T12:27:40;98322.23;;;28.86;31.94
34921;BME280;21128;50.016;20.002;2023-05-23T12:30:13;98322.79;;;28.78;32.24
34921;BME280;21128;50.016;20.002;2023-05-23T12:32:40;98319.55;;;28.76;32.85
34921;BME280;21128;50.016;20.002;2023-05-23T12:35:10;98318.75;;;28.76;32.80
34921;BME280;21128;50.016;20.002;2023-05-23T12:37:43;98314.94;;;29.02;32.90
34921;BME280;21128;50.016;20.002;2023-05-23T12:40:16;98315.95;;;29.16;32.92
34921;BME280;21128;50.016;20.002;2023-05-23T12:42:55;98321.59;;;29.35;32.95
34921;BME280;21128;50.016;20.002;2023-05-23T12:45:30;98316.95;;;29.41;32.46
34921;BME280;21128;50.016;20.002;2023-05-23T12:47:57;98324.83;;;29.32;32.90
34921;BME280;21128;50.016;20.002;2023-05-23T12:50:24;98328.06;;;29.34;32.52
34921;BME280;21128;50.016;20.002;2023-05-23T12:52:52;98322.63;;;29.50;32.71
34921;BME280;21128;50.016;20.002;2023-05-23T12:55:19;98323.36;;;29.70;32.77
34921;BME280;21128;50.016;20.002;2023-05-23T12:57:46;98322.35;;;30.00;32.70
34921;BME280;21128;50.016;20.002;2023-05-23T13:00:13;98314.63;;;30.28;32.53
34921;BME280;21128;50.016;20.002;2023-05-23T13:02:40;98308.25;;;30.43;31.97
34921;BME280;21128;50.016;20.002;2023-05-23T13:05:07;98307.41;;;30.13;31.59
34921;BME280;21128;50.016;20.002;2023-05-23T13:07:35;98303.98;;;29.92;31.33
34921;BME280;21128;50.016;20.002;2023-05-23T13:10:03;98304.32;;;29.86;31.97
34921;BME280;21128;50.016;20.002;2023-05-23T13:12:31;98307.33;;;29.79;31.85
34921;BME280;21128;50.016;20.002;2023-05-23T13:14:59;98309.30;;;29.68;32.06
34921;BME280;21128;50.016;20.002;2023-05-23T13:17:26;98309.63;;;29.47;31.91
34921;BME280;21128;50.016;20.002;2023-05-23T13:19:53;98304.61;;;29.14;31.83
34921;BME280;21128;50.016;20.002;2023-05-23T13:22:21;98298.73;;;28.77;32.15
34921;BME280;21128;50.016;20.002;2023-05-23T13:24:48;98292.81;;;28.54;32.50